Chandlers Valley, PA (16312)

4:58 AM EDT on August 26, 2016 (GMT -0400)
Cheery Hill / kortwright Rd. | | Change Station

Elev 1594 ft 42.01 °N, 79.40 °W | Updated 39 seconds ago

Scattered Clouds
Scattered Clouds
70.2 °F
Feels Like 70.2 °F
N
0.0
Wind Variable Wind from WSW
Gusts 0.0 mph

Today
High -- | Low -- °F
--% Chance of Precip.
Yesterday
High -- | Low -- °F
Precip. -- in
Pressure 30.08 in
Visibility 10.0 miles
Clouds Few 900 ft
Scattered Clouds 4400 ft
Dew Point 70 °F
Humidity 98%
Rainfall 0.00 in
Snow Depth Not available.
6:37 AM 7:59 PM
Last Quarter, 36% visible
METAR KJHW 260855Z AUTO 29004KT 10SM FEW009 SCT044 21/19 A3008 RMK AO1 52010
Pressure 30.08 in
Visibility 10.0 miles
Clouds Few 900 ft
Scattered Clouds 4400 ft
Dew Point 70 °F
Humidity 98%
Rainfall 0.00 in
Snow Depth Not available.
6:37 AM 7:59 PM
Last Quarter, 36% visible
METAR KJHW 260855Z AUTO 29004KT 10SM FEW009 SCT044 21/19 A3008 RMK AO1 52010

10-Day Weather Forecast

Almanac

Astronomy

Aug. 26, 2016 Rise Set
Actual Time
Civil Twilight
Nautical Twilight
Astronomical Twilight
Moon
Length of Visible Light
Length of Day
Tomorrow will be .
, % of the Moon is Illuminated

Today's Extremes

State Highs State Lows

Community

WunderPhotos

Upload Photos

1,935,062 photos uploaded!

WunderBlog® & News

Nearby

Air Quality

  Air Quality AQ Index Pollutant
Not available.

Snow Depth

Station Depth Elevation

Earthquake Activity

City Distance Mag. Time & Date
Minimum magnitude displayed is 2.5.

Coastal Water Temperatures

Place Temperature

Stations

Nearby Weather Stations

Station Location Temp. Windchill Dew Point Humidity Wind Precip. Elev Updated Type
                   

Watches & Warnings

There are currently no watches in effect.